Flight Track Log - Related Links

Times and Time Zones

All times are in EDT time to prevent confusion due to time zone crossing. See the NAC31 flight status page for this flight to view local times or setup timezone preferences in your user account.

Time Position Orientation Groundspeed Altitude Reporting Facility
EDT Latitude Longitude Course Direction KTS MPH feet Rate Location/Type
Mon 04:44:15 PM 61.2500 -150.4167 275° West 280 322 8,400  Level Anchorage Center
Mon 04:49:17 PM 61.2833 -151.3500 279° West 370 426 19,500 2,088 Climbing Anchorage Center
Mon 04:50:17 PM 61.3000 -151.5833 285° West 400 460 21,000 1,650 Climbing Anchorage Center
Mon 04:51:17 PM 61.3333 -151.8500 279° West 400 460 22,800 1,537 Climbing Anchorage Center
Mon 04:52:18 PM 61.3500 -152.0833 286° West 420 483 24,100 1,339 Climbing Anchorage Center
Mon 04:53:18 PM 61.3833 -152.3333 278° West 430 495 25,500 1,400 Climbing Anchorage Center
Mon 04:54:18 PM 61.4000 -152.5833 263° West 440 506 26,900 1,240 Climbing Anchorage Center
Mon 04:55:19 PM 61.3833 -152.8500 262° West 440 506 28,000 545 Climbing Anchorage Center
Mon 04:56:19 PM 61.3667 -153.1000 270° West 430 495 28,000  Level Anchorage Center
Mon 04:57:20 PM 61.3667 -153.3333 262° West 430 495 28,000  Level Anchorage Center
Mon 04:58:20 PM 61.3500 -153.5833 270° West 440 506 28,000  Level Anchorage Center
Mon 04:59:20 PM 61.3500 -153.8333 262° West 430 495 28,000  Level Anchorage Center
Mon 05:00:21 PM 61.3333 -154.0667 263° West 420 483 28,000  Level Anchorage Center
Mon 05:01:21 PM 61.3167 -154.3333 270° West 430 495 28,000  Level Anchorage Center
Mon 05:02:21 PM 61.3167 -154.5667 262° West 420 483 28,000  Level Anchorage Center
Mon 05:03:22 PM 61.3000 -154.8167 263° West 430 495 28,000  Level Anchorage Center
Mon 05:04:22 PM 61.2833 -155.1000 262° West 430 495 28,000  Level Anchorage Center
Mon 05:05:22 PM 61.2667 -155.3500 262° West 430 495 28,000  Level Anchorage Center
Mon 05:06:23 PM 61.2500 -155.6000 270° West 420 483 28,000  Level Anchorage Center
Mon 05:07:23 PM 61.2500 -155.8333 262° West 430 495 28,000  Level Anchorage Center
Mon 05:08:23 PM 61.2333 -156.0833 262° West 430 495 28,000  Level Anchorage Center
Mon 05:09:24 PM 61.2167 -156.3167 262° West 420 483 28,000  Level Anchorage Center
Mon 05:10:24 PM 61.2000 -156.5667 262° West 430 495 28,000  Level Anchorage Center
Mon 05:11:25 PM 61.1833 -156.8167 262° West 430 495 28,000  Level Anchorage Center
Mon 05:12:25 PM 61.1667 -157.0500 262° West 420 483 28,000  Level Anchorage Center
Mon 05:13:25 PM 61.1500 -157.3000 262° West 430 495 28,000  Level Anchorage Center
Mon 05:14:26 PM 61.1333 -157.5500 262° West 420 483 28,000  Level Anchorage Center
Mon 05:15:26 PM 61.1167 -157.8000 262° West 440 506 28,000  Level Anchorage Center
Mon 05:16:26 PM 61.1000 -158.0333 262° West 430 495 28,000  Level Anchorage Center
Mon 05:17:27 PM 61.0833 -158.2833 262° West 430 495 28,000  Level Anchorage Center
Mon 05:18:27 PM 61.0667 -158.5333 262° West 430 495 28,000  Level Anchorage Center
Mon 05:19:27 PM 61.0500 -158.7667 262° West 430 495 28,000  Level Anchorage Center
Mon 05:20:28 PM 61.0333 -159.0167 254° West 430 495 28,000 -496 Level Anchorage Center
Mon 05:21:28 PM 61.0000 -159.2500 262° West 430 495 27,000 -1,900 Descending Anchorage Center
Mon 05:22:28 PM 60.9833 -159.5000 263° West 430 495 24,200 -2,975 Descending Anchorage Center
Mon 05:23:29 PM 60.9667 -159.7833 261° West 410 472 21,000 -2,926 Descending Anchorage Center
Mon 05:24:29 PM 60.9500 -160.0000 254° West 400 460 18,300 -2,876 Descending Anchorage Center
Mon 05:25:30 PM 60.9167 -160.2333 260° West 390 449 15,200 -2,628 Descending Anchorage Center
Mon 05:26:30 PM 60.9000 -160.4333 260° West 370 426 13,000 -2,100 Descending Anchorage Center
Mon 05:27:30 PM 60.8833 -160.6333 256° West 340 391 11,000 -1,339 Descending Anchorage Center
Mon 05:28:31 PM 60.8667 -160.7667 260° West 340 391 10,300 -1,339 Descending Anchorage Center
Mon 05:29:31 PM 60.8500 -160.9500 258° West 260 299 8,300 -1,700 Descending Anchorage Center
Mon 05:30:31 PM 60.8333 -161.1167 270° West 290 334 6,900 -1,438 Descending Anchorage Center
Mon 05:31:32 PM 60.8333 -161.2500 270° West 240 276 5,400 -1,475 Descending Anchorage Center

Login

Don't have an account? Register now (free) for customized features, flight alerts, and more!